Aviation Digital Data Service (ADDS)

Output produced by METARs form (2214 UTC 23 March 2018)
found at http://aviationweather.gov/adds/metars/
METAR text: KXLL 232155Z AUTO 29007G14KT 260V330 10SM OVC065 06/M06 A3003 RMK AO2
Conditions at: KXLL (ALLENTOWN QUEEN , PA, US) observed 2155 UTC 23 March 2018
Temperature: 6.0°C (43°F)
Dewpoint: -6.0°C (21°F) [RH = 42%]
Pressure (altimeter): 30.03 inches Hg (1017.0 mb)
Winds: from the WNW (290 degrees) at 8 MPH (7 knots; 3.6 m/s)
gusting to 16 MPH (14 knots; 7.3 m/s)
Visibility: 10 or more miles (16+ km)
Ceiling: 6500 feet AGL
Clouds: overcast cloud deck at 6500 feet AGL
Weather: automated observation with no human augmentation;
there may or may not be significant weather present at this time